Time;durP1;ratioP1;P1;durP2;ratioP2;P2;SDS_P1;SDS_P2;PMS_P1;PMS_P2;Temp;Humidity;BMP_temperature;BMP_pressure;BME280_temperature;BME280_humidity;BME280_pressure;Samples;Min_cycle;Max_cycle;Signal;HPM_P1;HPM_P2
2021/04/04 00:01:21;;;;;;;0.63;0.20;;;10.40;38.00;;;9.75;26.69;100740.44;5027586;28;20227;-49
2021/04/04 00:03:49;;;;;;;1.10;0.20;;;10.30;38.20;;;9.65;27.22;100737.78;5026409;28;20469;-48
2021/04/04 00:06:16;;;;;;;1.95;0.10;;;10.20;38.40;;;9.73;27.06;100747.53;5028340;28;20030;-53
2021/04/04 00:08:42;;;;;;;0.95;0.17;;;10.20;38.10;;;9.69;27.00;100734.94;5027014;28;20378;-49
2021/04/04 00:11:11;;;;;;;1.48;0.20;;;10.20;38.30;;;9.64;27.11;100743.94;5008183;28;20389;-54
2021/04/04 00:13:38;;;;;;;1.00;0.25;;;10.20;38.30;;;9.55;27.30;100744.72;5027895;28;20227;-47
2021/04/04 00:16:05;;;;;;;0.60;0.10;;;10.10;38.40;;;9.49;27.24;100742.66;5025630;28;20513;-47
2021/04/04 00:18:30;;;;;;;0.85;0.20;;;10.00;38.50;;;9.43;27.41;100740.59;5028530;28;20088;-44
2021/04/04 00:20:56;;;;;;;0.55;0.13;;;10.00;38.60;;;9.48;27.57;100737.56;5027226;28;20501;-48
2021/04/04 00:23:23;;;;;;;2.50;0.20;;;10.00;38.60;;;9.51;26.99;100750.31;5028886;28;20451;-47
2021/04/04 00:25:49;;;;;;;0.90;0.20;;;10.00;38.50;;;9.46;27.54;100742.09;5027653;28;20044;-49
2021/04/04 00:28:15;;;;;;;0.47;0.10;;;10.00;38.60;;;9.49;27.43;100740.06;5026502;28;20152;-47
2021/04/04 00:30:41;;;;;;;0.85;0.20;;;10.00;38.60;;;9.54;27.07;100745.69;5009193;28;20044;-52
2021/04/04 00:33:07;;;;;;;0.60;0.10;;;10.00;38.50;;;9.62;26.84;100738.06;5028491;28;20132;-50
2021/04/04 00:35:33;;;;;;;0.75;0.20;;;10.10;38.40;;;9.56;27.17;100740.34;5027102;28;20469;-48
2021/04/04 00:37:59;;;;;;;0.70;0.20;;;10.10;38.50;;;9.43;27.59;100740.59;5027449;28;20049;-53
2021/04/04 00:40:32;;;;;;;1.48;0.10;;;10.00;38.70;;;9.36;27.43;100742.06;5027117;28;20092;-52
2021/04/04 00:42:58;;;;;;;2.80;0.17;;;9.90;38.70;;;9.40;27.26;100745.25;4992495;28;20048;-52
2021/04/04 00:45:30;;;;;;;1.13;0.20;;;9.90;38.60;;;9.42;27.39;100743.34;5023445;28;20731;-47
2021/04/04 00:47:57;;;;;;;0.95;0.20;;;9.90;38.60;;;9.29;27.70;100746.13;5025027;28;20091;-48
2021/04/04 00:50:27;;;;;;;0.52;0.20;;;9.90;38.80;;;9.33;27.29;100742.31;5027911;28;20158;-49
2021/04/04 00:52:54;;;;;;;0.73;0.13;;;9.90;38.80;;;9.28;27.52;100749.69;5028043;28;20025;-47
2021/04/04 00:55:20;;;;;;;0.75;0.20;;;9.80;38.90;;;9.25;27.47;100747.34;5026402;28;20138;-46
2021/04/04 00:57:47;;;;;;;0.77;0.20;;;9.80;38.90;;;9.23;27.55;100747.47;5025804;28;20183;-52
2021/04/04 01:00:16;;;;;;;1.48;0.20;;;9.70;38.90;;;9.16;27.78;100745.50;5025094;28;20029;-52
2021/04/04 01:02:43;;;;;;;1.10;0.20;;;9.70;39.00;;;9.26;27.42;100743.78;5028627;28;20106;-50
2021/04/04 01:05:14;;;;;;;0.47;0.20;;;9.80;38.90;;;9.23;27.49;100739.69;5027344;28;20033;-55
2021/04/04 01:07:43;;;;;;;1.08;0.20;;;9.80;38.80;;;9.26;27.31;100734.22;5027363;28;20037;-49
2021/04/04 01:10:10;;;;;;;0.52;0.22;;;9.80;38.60;;;9.31;27.35;100745.06;5017958;28;20031;-53
2021/04/04 01:13:29;;;;;;;0.80;0.25;;;9.80;38.70;;;9.23;27.44;100741.44;5009352;28;20440;-51
2021/04/04 01:16:05;;;;;;;2.55;0.20;;;9.80;38.80;;;9.13;27.93;100750.97;5028305;28;20516;-52
2021/04/04 01:18:52;;;;;;;0.60;0.20;;;9.70;39.00;;;9.15;27.92;100742.09;5025395;28;20048;-53
2021/04/04 01:21:33;;;;;;;;;;;9.70;38.90;;;9.02;28.04;100738.03;5026691;28;20041;-50
2021/04/04 01:24:16;;;;;;;1.23;0.30;;;9.60;39.20;;;9.05;27.61;100737.78;5025624;28;20380;-49
2021/04/04 01:26:55;;;;;;;1.15;0.10;;;9.60;39.00;;;9.11;27.88;100738.09;5028689;28;20382;-49
2021/04/04 01:29:24;;;;;;;0.75;0.20;;;9.60;38.90;;;9.08;27.88;100743.56;5022102;28;20476;-57
2021/04/04 01:31:52;;;;;;;1.30;0.20;;;9.60;39.10;;;9.08;27.77;100742.72;5028535;28;20028;-48
2021/04/04 01:34:29;;;;;;;2.70;0.40;;;9.60;39.10;;;9.14;27.86;100744.81;5026095;28;20033;-49
2021/04/04 01:37:03;;;;;;;2.53;0.20;;;9.60;39.00;;;9.23;27.54;100750.06;5008666;28;20080;-54
2021/04/04 01:39:42;;;;;;;1.20;0.30;;;9.70;38.60;;;9.28;27.12;100740.13;5019043;28;20025;-51
2021/04/04 01:42:11;;;;;;;1.40;0.20;;;9.80;38.50;;;9.16;27.78;100742.91;5011709;28;20053;-48
2021/04/04 01:44:45;;;;;;;0.80;0.20;;;9.80;38.90;;;9.04;27.93;100755.16;5006551;28;20099;-56
2021/04/04 01:47:14;;;;;;;0.50;0.20;;;9.60;39.10;;;9.02;27.89;100754.44;5007925;28;20037;-49
2021/04/04 01:49:45;;;;;;;0.73;0.50;;;9.60;39.20;;;9.12;27.66;100754.53;5008403;28;20040;-53
2021/04/04 01:52:15;;;;;;;3.30;0.20;;;9.60;38.90;;;9.06;28.14;100755.03;5027426;28;20189;-52
2021/04/04 01:54:42;;;;;;;0.30;0.10;;;9.60;39.30;;;8.87;28.94;100766.97;5009153;28;20045;-53
2021/04/04 01:57:09;;;;;;;0.40;0.10;;;9.50;40.20;;;8.71;29.50;100756.16;5009376;28;20029;-53
2021/04/04 01:59:37;;;;;;;1.05;0.17;;;9.30;40.50;;;8.59;29.63;100754.56;5024686;28;20115;-51
2021/04/04 02:02:05;;;;;;;0.52;0.20;;;9.20;40.60;;;8.50;29.86;100753.56;5010753;28;20045;-48
2021/04/04 02:04:33;;;;;;;1.02;0.20;;;9.10;41.40;;;8.36;30.79;100753.84;5026535;28;20033;-50
2021/04/04 02:06:59;;;;;;;1.77;0.20;;;9.00;42.20;;;8.25;31.39;100753.84;5025123;28;20133;-51
2021/04/04 02:09:27;;;;;;;0.50;0.20;;;8.90;42.90;;;8.14;32.24;100749.50;5021661;28;20039;-52
2021/04/04 02:11:54;;;;;;;0.45;0.10;;;8.80;43.30;;;8.20;31.93;100743.00;5008821;28;20041;-49
2021/04/04 02:14:22;;;;;;;2.33;0.40;;;8.80;43.50;;;8.24;32.00;100750.41;5007328;28;20559;-47
2021/04/04 02:16:52;;;;;;;1.13;0.20;;;8.80;43.70;;;8.23;32.10;100746.19;5025318;28;20116;-48
2021/04/04 02:19:23;;;;;;;2.15;0.30;;;8.80;43.50;;;8.22;32.16;100746.28;5022564;28;20604;-53
2021/04/04 02:21:52;;;;;;;3.17;0.30;;;8.80;43.60;;;8.21;32.26;100745.47;5025064;28;20037;-49
2021/04/04 02:24:21;;;;;;;0.45;0.15;;;8.80;43.80;;;8.20;32.66;100753.38;5023498;28;20038;-53
2021/04/04 02:26:47;;;;;;;0.43;0.20;;;8.80;44.30;;;8.38;31.72;100744.16;5025121;28;20805;-53
2021/04/04 02:29:13;;;;;;;0.70;0.25;;;8.90;43.20;;;8.51;31.59;100749.16;5022401;28;20033;-50
2021/04/04 02:31:54;;;;;;;0.77;0.20;;;9.00;43.20;;;8.40;32.01;100749.22;5026082;28;20090;-54
2021/04/04 02:34:26;;;;;;;0.65;0.20;;;9.00;43.50;;;8.28;32.67;100754.41;5020226;28;20338;-53
2021/04/04 02:36:53;;;;;;;0.30;0.10;;;8.90;43.80;;;8.18;33.00;100748.31;5029136;28;20045;-55
2021/04/04 02:39:27;;;;;;;1.23;0.20;;;8.80;44.80;;;8.08;34.13;100749.97;5009181;28;20045;-54
2021/04/04 02:41:57;;;;;;;1.33;0.20;;;8.70;45.60;;;7.99;34.47;100756.75;5029800;28;20049;-52
2021/04/04 02:44:27;;;;;;;1.13;0.20;;;8.60;46.30;;;7.98;35.15;100768.06;5022578;28;20040;-54
2021/04/04 02:46:58;;;;;;;3.13;0.30;;;8.50;46.80;;;7.92;35.45;100762.53;5011978;28;20079;-52
2021/04/04 02:49:34;;;;;;;2.58;0.30;;;8.50;47.40;;;7.83;37.22;100760.66;5007981;28;20044;-55
2021/04/04 02:52:04;;;;;;;1.85;0.30;;;8.40;47.70;;;7.71;36.74;100759.00;5008831;28;20109;-51
2021/04/04 02:54:35;;;;;;;3.03;0.40;;;8.30;48.30;;;7.62;37.58;100760.53;5027292;28;20044;-51
2021/04/04 02:57:02;;;;;;;1.85;0.30;;;8.30;49.10;;;7.58;38.11;100764.31;5028973;28;20168;-54
2021/04/04 02:59:43;;;;;;;1.58;0.30;;;8.20;50.00;;;7.46;39.48;100760.91;5025562;28;20044;-51
2021/04/04 03:02:12;;;;;;;2.67;0.45;;;8.10;50.30;;;7.33;39.19;100763.59;5024542;28;20081;-53
2021/04/04 03:04:40;;;;;;;0.80;0.30;;;8.00;50.80;;;7.25;39.41;100765.13;5008439;28;20128;-49
2021/04/04 03:07:10;;;;;;;1.30;0.40;;;7.90;51.20;;;7.17;39.66;100764.88;5030044;28;20033;-52
2021/04/04 03:09:41;;;;;;;1.25;0.50;;;7.80;51.60;;;7.10;40.83;100763.69;5025828;28;20030;-53
2021/04/04 03:12:08;;;;;;;2.33;0.70;;;7.70;52.50;;;7.08;40.58;100776.78;5006332;28;20033;-54
2021/04/04 03:14:35;;;;;;;1.50;0.40;;;7.70;53.10;;;6.96;41.18;100765.56;5008900;28;20240;-46
2021/04/04 03:17:03;;;;;;;1.60;0.40;;;7.60;53.10;;;6.87;41.34;100774.00;5011808;28;20123;-47
2021/04/04 03:19:33;;;;;;;1.25;0.30;;;7.50;53.50;;;6.79;41.73;100778.91;5026496;28;20155;-47
2021/04/04 03:22:01;;;;;;;1.35;0.40;;;7.40;53.50;;;6.75;41.58;100776.66;5028076;28;20087;-54
2021/04/04 03:24:29;;;;;;;0.82;0.40;;;7.40;53.70;;;6.66;41.88;100778.16;5025919;28;20079;-54
2021/04/04 03:26:56;;;;;;;1.25;0.35;;;7.30;54.30;;;6.65;42.16;100779.09;5009573;28;20046;-53
2021/04/04 03:29:22;;;;;;;2.00;0.40;;;7.30;54.90;;;6.66;42.31;100778.16;5025639;28;20118;-52
2021/04/04 03:31:49;;;;;;;1.02;0.50;;;7.20;54.50;;;6.59;42.75;100776.97;5028129;28;20046;-48
2021/04/04 03:34:17;;;;;;;1.77;0.30;;;7.20;55.20;;;6.49;43.25;100770.81;5027317;28;20041;-47
2021/04/04 03:36:45;;;;;;;1.48;0.30;;;7.10;55.60;;;6.41;43.41;100778.28;5007647;28;20049;-50
2021/04/04 03:39:12;;;;;;;1.20;0.30;;;7.00;55.90;;;6.36;43.75;100775.19;5009252;28;20033;-50
2021/04/04 03:41:39;;;;;;;1.42;0.30;;;7.00;56.10;;;6.30;43.94;100777.28;5028009;28;20064;-49
2021/04/04 03:44:09;;;;;;;1.40;0.40;;;6.90;56.40;;;6.24;44.33;100775.13;5007814;28;20041;-51
2021/04/04 03:46:37;;;;;;;3.03;0.40;;;6.90;56.90;;;6.07;44.92;100779.88;4994753;28;20044;-51
2021/04/04 03:49:06;;;;;;;1.52;0.40;;;6.80;57.20;;;5.98;45.24;100771.81;5010335;28;20108;-50
2021/04/04 03:51:32;;;;;;;1.40;0.30;;;6.70;57.10;;;5.83;45.54;100783.19;5010080;28;20037;-49
2021/04/04 03:53:59;;;;;;;0.80;0.30;;;6.60;57.80;;;5.81;45.62;100779.88;5026623;28;20056;-52
2021/04/04 03:56:35;;;;;;;0.95;0.35;;;6.50;58.10;;;5.88;46.34;100777.72;5025165;28;20044;-52
2021/04/04 03:59:06;;;;;;;1.58;0.38;;;6.50;58.10;;;5.77;46.18;100781.03;4993820;28;20063;-46
2021/04/04 04:01:35;;;;;;;2.15;0.40;;;6.40;58.40;;;5.70;46.89;100791.91;5027565;28;20060;-56
2021/04/04 04:04:03;;;;;;;2.17;0.50;;;6.30;59.30;;;5.70;46.03;100781.56;5026838;28;20080;-47
2021/04/04 04:06:37;;;;;;;2.33;0.63;;;6.30;58.60;;;5.70;47.30;100778.97;5025661;28;20132;-52
2021/04/04 04:09:05;;;;;;;1.08;0.30;;;6.30;59.50;;;5.54;47.08;100780.03;5028413;28;20092;-53
2021/04/04 04:11:32;;;;;;;4.30;0.60;;;6.20;59.40;;;5.59;46.90;100779.72;5008419;28;20038;-54
2021/04/04 04:14:01;;;;;;;2.55;0.40;;;6.20;59.30;;;5.55;46.31;100786.88;5008676;28;20041;-54
2021/04/04 04:16:28;;;;;;;2.20;0.40;;;6.20;58.70;;;5.51;46.71;100784.59;5026149;28;20041;-53
2021/04/04 04:18:55;;;;;;;2.25;0.50;;;6.20;59.30;;;5.38;47.68;100781.19;5027537;28;20030;-52
2021/04/04 04:21:21;;;;;;;1.48;0.40;;;6.00;60.50;;;5.29;48.40;100780.03;5026389;28;20179;-54
2021/04/04 04:23:48;;;;;;;1.33;0.40;;;6.00;61.20;;;5.15;48.85;100787.91;5007795;28;20045;-51
2021/04/04 04:26:16;;;;;;;1.70;0.50;;;5.90;61.80;;;5.07;49.83;100785.00;5009585;28;20037;-52
2021/04/04 04:28:43;;;;;;;1.13;0.30;;;5.80;63.10;;;5.03;49.75;100793.88;5026132;28;20053;-53
2021/04/04 04:31:23;;;;;;;2.35;0.50;;;5.70;62.70;;;4.99;51.50;100793.25;5008418;28;20060;-53
2021/04/04 04:33:53;;;;;;;1.58;0.52;;;5.60;62.70;;;5.00;49.98;100800.06;5024541;28;20045;-51
2021/04/04 04:36:22;;;;;;;1.75;0.40;;;5.60;62.80;;;5.09;49.71;100801.22;5006586;28;20049;-52
2021/04/04 04:38:51;;;;;;;1.17;0.35;;;5.70;62.30;;;5.21;48.95;100802.97;5009057;28;20037;-56
2021/04/04 04:41:17;;;;;;;1.50;0.40;;;5.70;61.30;;;5.17;49.21;100801.53;5007181;28;20075;-53
2021/04/04 04:43:51;;;;;;;1.85;0.50;;;5.80;62.00;;;5.13;49.70;100805.25;5006358;28;20042;-50
2021/04/04 04:46:17;;;;;;;4.40;3.47;;;5.80;62.50;;;5.18;48.35;100803.19;5026274;28;20424;-53
2021/04/04 04:48:43;;;;;;;2.08;1.48;;;5.80;60.90;;;5.23;47.80;100808.84;5007956;28;20373;-53
2021/04/04 04:51:11;;;;;;;4.53;4.18;;;5.80;60.20;;;5.47;47.13;100809.00;5008738;28;20089;-51
2021/04/04 04:53:38;;;;;;;3.08;1.40;;;6.00;59.60;;;5.33;48.36;100804.75;5016909;28;20112;-49
2021/04/04 04:56:05;;;;;;;1.40;0.82;;;6.00;61.80;;;5.27;48.46;100807.72;5009433;28;20467;-53
2021/04/04 04:58:35;;;;;;;1.15;0.60;;;5.90;60.60;;;5.29;48.46;100816.19;5023576;28;20040;-50
2021/04/04 05:01:09;;;;;;;2.78;0.50;;;5.90;60.50;;;5.33;47.59;100815.91;5025107;28;20041;-53
2021/04/04 05:03:35;;;;;;;2.85;0.40;;;6.00;59.00;;;5.32;47.43;100821.16;5023788;28;20180;-49
2021/04/04 05:06:10;;;;;;;1.13;0.30;;;6.00;59.30;;;5.32;47.55;100813.41;5026664;28;20056;-53
2021/04/04 05:08:39;;;;;;;1.33;0.38;;;6.00;59.20;;;5.52;45.93;100817.25;5007595;28;20045;-47
2021/04/04 05:11:09;;;;;;;2.33;0.35;;;6.10;58.20;;;5.75;45.62;100823.44;5026306;28;20108;-50
2021/04/04 05:13:39;;;;;;;3.70;0.52;;;6.30;57.50;;;5.61;46.86;100826.97;5022975;28;20540;-50
2021/04/04 05:16:14;;;;;;;1.90;0.52;;;6.30;59.20;;;5.51;48.25;100837.09;5026316;28;20034;-53
2021/04/04 05:18:52;;;;;;;1.85;0.80;;;6.20;59.70;;;5.66;48.46;100830.91;5007078;28;20643;-52
2021/04/04 05:21:30;;;;;;;1.40;0.40;;;6.40;60.30;;;5.74;48.54;100834.72;5025806;28;20049;-55
2021/04/04 05:24:08;;;;;;;3.35;1.08;;;6.50;59.80;;;5.78;48.87;100843.91;5024438;28;20484;-53
2021/04/04 05:26:44;;;;;;;1.90;0.90;;;6.50;61.10;;;7.87;45.10;100842.50;5026799;28;20539;-51
2021/04/04 05:29:13;;;;;;;1.38;0.70;;;8.10;58.90;;;10.59;39.51;100848.47;5021318;28;20045;-53
2021/04/04 05:31:54;;;;;;;2.97;0.68;;;11.80;50.50;;;12.58;35.85;100847.41;5024616;28;20544;-49
2021/04/04 05:34:25;;;;;;;1.23;0.63;;;14.60;44.60;;;14.38;32.71;100855.44;5021864;28;20136;-54
2021/04/04 05:37:04;;;;;;;1.38;0.45;;;16.80;41.60;;;15.18;30.71;100847.84;5023914;28;20088;-49
2021/04/04 05:39:33;;;;;;;2.35;0.43;;;18.30;38.00;;;16.25;29.53;100848.22;5024796;28;20059;-53
2021/04/04 05:42:02;;;;;;;2.45;0.73;;;19.40;37.40;;;16.48;28.98;100850.91;5022112;28;20048;-53
2021/04/04 05:44:34;;;;;;;1.83;0.75;;;20.10;36.10;;;16.34;29.62;100866.59;5022292;28;20025;-51
2021/04/04 05:47:19;;;;;;;5.22;1.83;;;20.50;35.90;;;16.00;30.42;100854.59;5023305;28;20780;-51
2021/04/04 05:50:06;;;;;;;2.55;1.38;;;20.70;35.40;;;16.27;29.07;100856.75;5008463;28;20045;-51
2021/04/04 05:52:31;;;;;;;2.50;1.50;;;20.90;34.70;;;16.32;29.97;100873.84;5018263;28;20379;-52
2021/04/04 05:55:37;;;;;;;2.28;0.65;;;21.10;34.70;;;16.06;27.09;100880.19;5024758;28;20136;-50
2021/04/04 05:58:33;;;;;;;1.90;0.70;;;21.30;32.00;;;15.91;26.44;100876.63;5021811;28;20041;-53
2021/04/04 06:01:14;;;;;;;1.52;0.50;;;20.90;33.80;;;14.48;30.25;100882.38;5019623;28;20056;-58
2021/04/04 06:04:11;;;;;;;1.92;0.52;;;19.30;34.50;;;15.36;28.95;100881.78;5017294;28;20025;-51
2021/04/04 06:07:02;;;;;;;1.90;0.70;;;19.50;35.30;;;15.87;28.01;100889.28;5007737;28;20044;-52
2021/04/04 06:10:01;;;;;;;2.72;0.75;;;20.40;33.40;;;16.47;26.76;100887.91;5023896;28;20211;-54
2021/04/04 06:12:57;;;;;;;1.33;0.60;;;21.30;32.70;;;16.83;26.95;100889.03;5028317;28;21189;-56
2021/04/04 06:15:43;;;;;;;2.20;0.60;;;22.00;31.70;;;17.15;26.65;100892.38;5029877;28;20480;-54
2021/04/04 06:18:40;;;;;;;1.30;0.50;;;22.60;31.50;;;17.04;26.05;100895.44;5012114;28;20041;-46
2021/04/04 06:21:24;;;;;;;1.75;0.77;;;22.70;31.00;;;16.91;26.54;100894.22;5024244;28;20427;-53
2021/04/04 06:24:22;;;;;;;1.70;0.50;;;22.50;31.70;;;17.05;25.72;100890.00;5027566;28;20073;-53
2021/04/04 06:27:10;;;;;;;2.63;0.50;;;23.00;30.00;;;17.13;26.12;100895.19;5023069;28;20052;-47
2021/04/04 06:30:20;;;;;;;1.05;0.57;;;22.80;31.00;;;17.18;26.39;100903.38;5025461;28;20086;-50
2021/04/04 06:33:02;;;;;;;1.63;0.77;;;23.00;30.60;;;17.01;26.53;100901.06;5026270;28;20046;-51
2021/04/04 06:35:44;;;;;;;1.58;0.50;;;22.60;31.00;;;16.63;26.94;100893.06;5026469;28;20149;-54
2021/04/04 06:38:54;;;;;;;1.55;0.60;;;21.60;32.00;;;16.48;27.01;100895.63;5029713;28;20076;-48
2021/04/04 06:41:20;;;;;;;1.88;0.90;;;20.30;33.00;;;14.87;29.08;100898.34;5025794;28;20107;-53
2021/04/04 06:43:57;;;;;;;1.83;0.65;;;17.80;36.50;;;13.82;30.84;100901.38;5026015;28;20481;-52
2021/04/04 06:46:51;;;;;;;2.13;0.85;;;15.90;39.50;;;12.84;32.67;100898.94;5029135;28;20092;-53
2021/04/04 06:49:30;;;;;;;2.58;0.90;;;14.30;42.20;;;12.30;33.45;100892.81;5007356;28;20362;-49
2021/04/04 06:52:15;;;;;;;1.58;0.98;;;13.50;43.60;;;11.98;34.28;100895.00;5027247;28;20037;-48
2021/04/04 06:55:12;;;;;;;3.08;0.90;;;13.10;44.50;;;11.73;34.87;100902.50;5026426;28;20041;-54
2021/04/04 06:57:58;;;;;;;3.60;0.88;;;12.60;45.40;;;11.73;34.69;100899.88;5008545;28;20037;-52
2021/04/04 07:01:02;;;;;;;;;;;12.50;45.80;;;11.50;35.80;100891.53;5026769;28;20479;-54
2021/04/04 07:03:47;;;;;;;2.65;0.82;;;12.30;46.90;;;11.76;34.51;100906.63;5025058;28;19921;-49
2021/04/04 07:06:25;;;;;;;5.97;2.42;;;12.30;46.00;;;11.85;35.27;100901.38;5023445;28;20378;-50
2021/04/04 07:09:16;;;;;;;2.17;1.17;;;12.50;46.40;;;12.07;35.20;100912.44;5024367;28;20168;-54
2021/04/04 07:12:33;;;;;;;1.92;0.90;;;12.70;46.90;;;12.21;35.42;100907.59;5025337;28;20033;-54
2021/04/04 07:15:49;;;;;;;1.58;0.65;;;12.80;47.00;;;12.40;34.97;100904.03;5023170;28;20045;-56
2021/04/04 07:18:43;;;;;;;2.47;0.60;;;13.00;46.80;;;12.58;34.21;100906.69;5008713;28;20056;-49
2021/04/04 07:22:18;;;;;;;1.60;0.90;;;13.50;45.60;;;12.57;34.40;100905.06;5023536;28;22091;-51
2021/04/04 07:25:14;;;;;;;1.83;0.60;;;13.30;45.60;;;12.93;33.62;100908.50;4954245;28;20488;-54
2021/04/04 07:27:57;;;;;;;2.42;0.75;;;13.40;45.30;;;12.91;33.42;100905.22;4946878;28;20063;-48
2021/04/04 07:30:37;;;;;;;2.20;0.60;;;13.50;45.50;;;12.77;32.70;100909.16;4958937;28;20053;-56
2021/04/04 07:33:09;;;;;;;1.48;0.57;;;13.50;44.80;;;12.53;33.54;100906.31;4946266;28;20047;-52
2021/04/04 07:35:53;;;;;;;4.55;0.63;;;13.30;45.20;;;12.82;33.47;100901.72;4961330;28;20050;-49
2021/04/04 07:38:29;;;;;;;1.90;0.60;;;13.30;45.70;;;12.95;33.41;100902.16;4951157;28;20079;-52
2021/04/04 07:41:16;;;;;;;;;;;13.50;45.50;;;13.10;33.34;100904.25;4951065;28;20129;-54
2021/04/04 07:43:49;;;;;;;;;;;13.60;45.40;;;12.89;32.96;100901.94;4945469;28;19937;-52
2021/04/04 07:47:12;;;;;;;2.60;0.60;;;13.60;44.40;;;12.35;32.09;100908.03;4956793;28;19918;-48
2021/04/04 07:49:42;;;;;;;1.58;0.55;;;13.20;43.30;;;12.41;33.01;100904.84;4868422;29;20140;-56
2021/04/04 07:52:43;;;;;;;2.22;0.70;;;13.10;44.70;;;12.57;31.80;100910.28;4870522;29;20095;-54
2021/04/04 07:55:26;;;;;;;1.40;0.50;;;13.00;44.30;;;12.66;31.99;100906.78;4869987;29;20052;-55
2021/04/04 07:57:57;;;;;;;2.40;0.73;;;13.10;44.10;;;12.42;32.16;100901.28;4885147;29;20519;-53
2021/04/04 08:00:24;;;;;;;3.85;0.57;;;13.10;44.00;;;12.21;31.83;100901.53;4900086;29;20083;-55
2021/04/04 08:02:55;;;;;;;1.10;0.50;;;12.80;43.10;;;12.59;31.31;100910.94;4908868;29;20044;-51
2021/04/04 08:05:28;;;;;;;0.95;0.40;;;13.00;43.80;;;12.86;30.91;100904.84;4922294;29;20523;-54
2021/04/04 08:07:59;;;;;;;1.90;0.40;;;13.20;43.30;;;12.89;30.45;100908.00;4892103;29;20040;-55
2021/04/04 08:10:33;;;;;;;1.45;0.52;;;13.20;42.70;;;12.81;30.79;100900.06;4915097;29;20439;-55
2021/04/04 08:13:24;;;;;;;1.15;0.52;;;13.20;42.90;;;12.51;29.98;100903.84;4909612;29;20560;-53
2021/04/04 08:16:42;;;;;;;1.08;0.50;;;13.10;41.90;;;12.27;30.04;100906.19;4920883;29;20580;-50
2021/04/04 08:19:09;;;;;;;2.33;0.43;;;12.80;42.00;;;12.62;30.81;100908.06;4909244;29;20411;-53
2021/04/04 08:21:47;;;;;;;1.60;0.50;;;12.90;43.10;;;12.87;30.37;100909.09;4909635;29;20358;-46
2021/04/04 08:24:45;;;;;;;2.97;0.40;;;13.10;42.90;;;12.87;29.29;100901.25;5016974;28;20041;-56
2021/04/04 08:27:22;;;;;;;1.00;0.40;;;13.30;41.50;;;12.83;29.66;100892.88;5026774;28;20099;-50
2021/04/04 08:30:02;;;;;;;2.08;0.30;;;13.20;42.10;;;12.73;29.65;100894.78;5026144;28;20091;-50
2021/04/04 08:32:51;;;;;;;1.10;0.30;;;13.20;41.70;;;12.76;28.92;100897.06;5024676;28;20409;-51
2021/04/04 08:35:32;;;;;;;0.98;0.20;;;13.20;40.90;;;12.26;28.28;100915.81;5020357;28;20034;-54
2021/04/04 08:38:35;;;;;;;1.83;0.30;;;12.90;40.30;;;12.41;29.16;100891.78;4997128;28;20145;-55
2021/04/04 08:41:03;;;;;;;2.33;0.52;;;12.80;41.40;;;12.43;29.92;100908.97;4984386;28;20653;-55
2021/04/04 08:43:30;;;;;;;1.63;0.60;;;12.80;42.00;;;12.38;29.55;100907.75;4984585;28;20089;-54
2021/04/04 08:46:02;;;;;;;1.55;0.57;;;12.90;41.00;;;12.29;29.88;100912.06;5003030;28;20502;-53
2021/04/04 08:48:29;;;;;;;0.90;0.30;;;12.80;42.00;;;12.25;29.65;100902.91;4985108;28;20521;-52
2021/04/04 08:50:58;;;;;;;1.25;0.30;;;12.70;41.30;;;12.23;29.18;100899.59;4979839;28;20038;-51
2021/04/04 08:53:37;;;;;;;1.58;0.30;;;12.60;41.10;;;12.45;29.68;100903.59;4998171;28;21450;-52
2021/04/04 08:56:03;;;;;;;1.40;0.40;;;12.80;41.70;;;12.42;29.56;100901.28;4980558;28;20586;-52
2021/04/04 08:58:38;;;;;;;1.38;0.30;;;12.80;41.70;;;12.45;28.98;100899.19;5001689;28;20137;-51
2021/04/04 09:01:11;;;;;;;1.53;0.80;;;12.90;41.00;;;12.69;29.03;100901.25;4981379;28;20042;-50
2021/04/04 09:03:50;;;;;;;1.25;0.40;;;13.00;41.10;;;12.81;27.88;100901.84;4984769;28;20300;-56
2021/04/04 09:06:17;;;;;;;1.98;0.30;;;13.20;40.40;;;12.73;28.19;100918.31;4980514;28;20498;-52
2021/04/04 09:08:43;;;;;;;0.80;0.30;;;13.20;40.40;;;12.95;28.19;100891.72;4986660;28;20034;-53
2021/04/04 09:11:13;;;;;;;0.82;0.30;;;13.20;40.40;;;12.97;26.66;100899.41;4985365;28;20130;-52
2021/04/04 09:13:40;;;;;;;1.13;0.30;;;13.40;38.90;;;12.70;27.35;100889.84;4998819;28;20034;-53
2021/04/04 09:16:15;;;;;;;0.80;0.30;;;13.30;38.70;;;12.82;26.75;100906.94;4987449;28;20034;-52
2021/04/04 09:18:53;;;;;;;0.90;0.20;;;13.20;39.00;;;13.11;27.33;100892.84;4997483;28;20065;-55
2021/04/04 09:21:22;;;;;;;1.55;0.20;;;13.30;39.40;;;13.06;25.87;100892.47;4984298;28;20045;-49
2021/04/04 09:23:53;;;;;;;1.35;0.30;;;13.60;38.20;;;13.22;26.77;100883.00;4982861;28;20041;-49
2021/04/04 09:26:24;;;;;;;3.72;0.30;;;13.60;38.50;;;13.59;25.96;100893.22;4996248;28;20411;-53
2021/04/04 09:28:52;;;;;;;1.75;0.30;;;13.70;38.40;;;13.55;26.01;100891.91;5001119;28;20114;-51
2021/04/04 09:31:28;;;;;;;1.92;0.30;;;13.80;38.00;;;13.29;25.53;100885.78;4997898;28;20491;-55
2021/04/04 09:34:13;;;;;;;0.60;0.28;;;13.80;37.60;;;13.24;25.33;100896.72;4983071;28;20411;-54
2021/04/04 09:36:51;;;;;;;1.83;0.30;;;13.70;37.20;;;13.34;25.61;100874.88;4999088;28;20241;-55
2021/04/04 09:39:26;;;;;;;1.95;0.52;;;13.60;37.80;;;13.89;24.16;100881.44;4987391;28;20466;-51
2021/04/04 09:41:55;;;;;;;1.05;0.22;;;14.10;37.10;;;14.28;24.88;100866.06;4981709;28;20030;-55
2021/04/04 09:44:33;;;;;;;0.77;0.25;;;14.40;37.20;;;13.82;24.40;100884.84;4978127;28;20038;-54
2021/04/04 09:47:02;;;;;;;2.25;0.30;;;14.30;36.10;;;14.16;24.89;100875.19;4982235;28;20049;-57
2021/04/04 09:49:48;;;;;;;1.77;0.50;;;14.40;37.10;;;14.16;23.86;100877.81;4985136;28;20132;-51
2021/04/04 09:52:29;;;;;;;1.10;0.20;;;14.50;36.40;;;14.18;24.56;100882.88;4982119;28;20085;-57
2021/04/04 09:55:17;;;;;;;1.13;0.30;;;14.60;36.60;;;14.05;24.34;100895.63;5001542;28;20030;-55
2021/04/04 09:57:51;;;;;;;2.42;0.30;;;14.40;36.40;;;14.00;23.93;100879.53;4981393;28;20046;-58
2021/04/04 10:00:39;;;;;;;2.88;0.45;;;14.40;36.20;;;13.95;23.52;100874.75;4981788;28;20034;-52
2021/04/04 10:03:18;;;;;;;1.73;0.40;;;14.30;35.60;;;14.54;23.04;100867.81;4984524;28;20034;-56
2021/04/04 10:05:45;;;;;;;0.85;0.30;;;14.70;36.00;;;14.85;23.28;100862.78;4981661;28;20069;-55
2021/04/04 10:08:22;;;;;;;1.88;0.40;;;15.10;34.90;;;14.94;23.23;100860.00;4982909;28;20035;-59
2021/04/04 10:10:56;;;;;;;2.25;0.35;;;15.20;35.70;;;14.85;23.37;100847.03;4983633;28;20109;-59
2021/04/04 10:13:28;;;;;;;2.25;0.43;;;15.30;35.30;;;15.30;23.20;100851.78;4984163;28;20089;-56
2021/04/04 10:15:56;;;;;;;1.67;0.20;;;15.60;35.20;;;15.42;23.25;100845.19;4984255;28;20080;-55
2021/04/04 10:18:23;;;;;;;2.95;0.50;;;15.70;35.80;;;15.53;22.08;100847.47;4982790;28;20490;-56
2021/04/04 10:20:56;;;;;;;0.43;0.22;;;16.00;34.00;;;15.02;22.29;100853.13;4978836;28;20108;-54
2021/04/04 10:23:34;;;;;;;2.05;0.30;;;15.60;34.10;;;14.78;22.32;100865.22;4985373;28;20078;-53
2021/04/04 10:26:06;;;;;;;0.73;0.30;;;15.30;34.20;;;14.70;22.02;100836.34;4982067;28;20117;-54
2021/04/04 10:29:01;;;;;;;0.73;0.15;;;15.10;33.30;;;15.23;21.49;100835.03;4982346;28;20121;-55
2021/04/04 10:31:46;;;;;;;0.70;0.20;;;15.50;33.80;;;15.08;21.70;100834.09;5001106;28;20451;-52
2021/04/04 10:34:12;;;;;;;0.45;0.10;;;15.40;34.00;;;15.72;21.60;100827.09;4979116;28;20041;-55
2021/04/04 10:36:38;;;;;;;0.60;0.20;;;15.80;33.80;;;15.48;22.04;100818.28;4998535;28;20045;-57
2021/04/04 10:39:22;;;;;;;0.40;0.20;;;15.90;33.80;;;14.99;21.21;100816.69;5023405;28;20040;-55
2021/04/04 10:41:48;;;;;;;1.92;0.30;;;15.60;32.80;;;15.34;22.20;100812.88;5022647;28;20459;-55
2021/04/04 10:44:26;;;;;;;1.55;0.20;;;15.60;33.50;;;15.85;21.24;100814.25;5021436;28;20033;-53
2021/04/04 10:46:52;;;;;;;2.83;0.40;;;16.00;33.90;;;15.65;21.67;100807.75;5002283;28;20037;-52
2021/04/04 10:49:19;;;;;;;0.40;0.20;;;16.00;33.20;;;16.04;21.68;100803.34;5020885;28;20392;-50
2021/04/04 10:51:48;;;;;;;0.98;0.30;;;16.20;34.00;;;15.39;21.64;100803.53;5002437;28;20445;-50
2021/04/04 10:54:15;;;;;;;2.08;0.20;;;16.00;33.10;;;15.91;21.46;100805.69;5022376;28;20037;-54